Time,TemperatureF,DewpointF,PressureIn,WindDirection,WindDirectionDegrees,WindSpeedMPH,WindSpeedGustMPH,Humidity,HourlyPrecipIn,Conditions,Clouds,dailyrainin,SoftwareType,DateUTC
2013-10-01 00:01:00,61.0,57.7,29.85,South,180,1.1,1.1,89,0.00,OVC,,0.00,WeatherDisplay:10.37,2013-10-01 04:01:00,
2013-10-01 00:02:00,61.0,57.7,29.85,South,180,0.0,0.0,89,0.00,OVC,,0.00,WeatherDisplay:10.37,2013-10-01 04:02:00,
2013-10-01 00:04:00,61.0,57.7,29.85,SW,225,1.1,1.1,89,0.00,OVC,,0.00,WeatherDisplay:10.37,2013-10-01 04:04:00,
2013-10-01 00:09:00,61.0,57.7,29.85,West,270,0.0,0.0,89,0.00,OVC,,0.00,WeatherDisplay:10.37,2013-10-01 04:09:00,
2013-10-01 00:14:00,60.8,57.5,29.85,West,270,0.0,0.0,89,0.00,OVC,,0.00,WeatherDisplay:10.37,2013-10-01 04:14:00,
2013-10-01 00:19:00,60.6,57.3,29.85,WSW,248,2.3,2.3,89,0.00,OVC,,0.00,WeatherDisplay:10.37,2013-10-01 04:19:00,
2013-10-01 00:24:00,60.6,57.3,29.86,WSW,248,2.3,2.3,89,0.00,OVC,,0.00,WeatherDisplay:10.37,2013-10-01 04:24:00,
2013-10-01 00:29:00,60.6,57.3,29.86,SW,225,2.3,2.3,89,0.00,OVC,,0.00,WeatherDisplay:10.37,2013-10-01 04:29:00,
2013-10-01 00:34:00,60.6,57.3,29.85,SW,225,0.0,0.0,89,0.00,OVC,,0.00,WeatherDisplay:10.37,2013-10-01 04:34:00,
2013-10-01 00:39:00,60.6,57.3,29.85,West,270,1.7,1.7,89,0.00,OVC,,0.00,WeatherDisplay:10.37,2013-10-01 04:39:00,
2013-10-01 00:44:00,60.4,57.1,29.85,SW,225,0.0,0.0,89,0.00,OVC,,0.00,WeatherDisplay:10.37,2013-10-01 04:44:00,
2013-10-01 00:49:00,60.4,57.1,29.86,SW,225,0.0,0.0,89,0.00,OVC,,0.00,WeatherDisplay:10.37,2013-10-01 04:49:00,
2013-10-01 00:54:00,60.3,57.0,29.86,SW,225,0.0,0.0,89,0.00,OVC,,0.00,WeatherDisplay:10.37,2013-10-01 04:54:00,
2013-10-01 00:59:00,60.1,56.8,29.85,SW,225,0.0,0.0,89,0.00,OVC,,0.00,WeatherDisplay:10.37,2013-10-01 04:59:00,
2013-10-01 01:04:00,60.1,56.8,29.85,SW,225,0.0,0.0,89,0.00,OVC,,0.00,WeatherDisplay:10.37,2013-10-01 05:04:00,
2013-10-01 01:09:00,60.1,56.8,29.85,SW,225,0.0,0.0,89,0.00,OVC,,0.00,WeatherDisplay:10.37,2013-10-01 05:09:00,
2013-10-01 01:14:00,60.1,56.8,29.85,WSW,248,0.0,0.0,89,0.00,OVC,,0.00,WeatherDisplay:10.37,2013-10-01 05:14:00,
2013-10-01 01:19:00,60.1,56.8,29.85,WSW,248,0.0,0.0,89,0.00,OVC,,0.00,WeatherDisplay:10.37,2013-10-01 05:19:00,
2013-10-01 01:24:00,60.1,56.8,29.85,SW,225,0.0,0.0,89,0.00,OVC,,0.00,WeatherDisplay:10.37,2013-10-01 05:24:00,
2013-10-01 01:29:00,60.1,57.2,29.85,West,270,0.0,0.0,90,0.00,OVC,,0.00,WeatherDisplay:10.37,2013-10-01 05:29:00,
2013-10-01 01:34:00,60.1,57.2,29.85,West,270,0.0,0.0,90,0.00,OVC,,0.00,WeatherDisplay:10.37,2013-10-01 05:34:00,
2013-10-01 01:39:00,60.1,57.2,29.85,West,270,0.0,0.0,90,0.00,OVC,,0.00,WeatherDisplay:10.37,2013-10-01 05:39:00,
2013-10-01 01:44:00,60.1,57.2,29.85,WSW,248,0.0,0.0,90,0.00,OVC,,0.00,WeatherDisplay:10.37,2013-10-01 05:44:00,
2013-10-01 01:49:00,60.1,57.2,29.86,West,270,0.0,0.0,90,0.00,OVC,,0.00,WeatherDisplay:10.37,2013-10-01 05:49:00,
2013-10-01 01:54:00,60.1,57.2,29.86,SW,225,2.2,2.2,90,0.00,OVC,,0.00,WeatherDisplay:10.37,2013-10-01 05:54:00,
2013-10-01 01:59:00,60.1,57.2,29.86,SSW,202,0.0,0.0,90,0.00,OVC,,0.00,WeatherDisplay:10.37,2013-10-01 05:59:00,
2013-10-01 02:04:00,60.3,57.4,29.86,SSW,202,1.1,1.1,90,0.00,OVC,,0.00,WeatherDisplay:10.37,2013-10-01 06:04:00,
2013-10-01 02:09:00,60.3,57.4,29.86,South,180,2.3,2.3,90,0.00,OVC,,0.00,WeatherDisplay:10.37,2013-10-01 06:09:00,
2013-10-01 02:14:00,60.3,57.4,29.86,WSW,248,0.0,0.0,90,0.00,OVC,,0.00,WeatherDisplay:10.37,2013-10-01 06:14:00,
2013-10-01 02:19:00,60.3,57.4,29.86,WSW,248,0.0,0.0,90,0.00,OVC,,0.00,WeatherDisplay:10.37,2013-10-01 06:19:00,
2013-10-01 02:24:00,60.1,57.2,29.86,WSW,248,0.0,0.0,90,0.00,OVC,,0.00,WeatherDisplay:10.37,2013-10-01 06:24:00,
2013-10-01 02:29:00,60.1,57.2,29.86,WSW,248,0.0,0.0,90,0.00,OVC,,0.00,WeatherDisplay:10.37,2013-10-01 06:29:00,
2013-10-01 02:34:00,60.1,57.5,29.86,SW,225,0.0,0.0,91,0.00,OVC,,0.00,WeatherDisplay:10.37,2013-10-01 06:34:00,
2013-10-01 02:39:00,60.1,57.5,29.86,SW,225,1.1,0.0,91,0.00,OVC,,0.00,WeatherDisplay:10.37,2013-10-01 06:39:00,
2013-10-01 02:44:00,59.9,57.3,29.86,SW,225,1.1,0.0,91,0.00,OVC,,0.00,WeatherDisplay:10.37,2013-10-01 06:44:00,
2013-10-01 02:49:00,59.9,57.3,29.85,SSW,202,0.0,0.0,91,0.00,OVC,,0.00,WeatherDisplay:10.37,2013-10-01 06:49:00,
2013-10-01 02:54:00,59.9,57.3,29.85,SW,225,0.0,0.0,91,0.00,OVC,,0.00,WeatherDisplay:10.37,2013-10-01 06:54:00,
2013-10-01 02:59:00,59.7,57.4,29.85,WSW,248,2.2,2.2,92,0.00,OVC,,0.00,WeatherDisplay:10.37,2013-10-01 06:59:00,
2013-10-01 03:04:00,59.7,57.4,29.85,WSW,248,0.0,0.0,92,0.00,OVC,,0.00,WeatherDisplay:10.37,2013-10-01 07:04:00,
2013-10-01 03:09:00,59.5,57.2,29.85,SW,225,0.0,0.0,92,0.00,OVC,,0.00,WeatherDisplay:10.37,2013-10-01 07:09:00,
2013-10-01 03:14:00,59.5,57.2,29.85,SW,225,0.0,0.0,92,0.00,OVC,,0.00,WeatherDisplay:10.37,2013-10-01 07:14:00,
2013-10-01 03:19:00,59.5,57.5,29.85,WSW,248,0.0,0.0,93,0.00,OVC,,0.00,WeatherDisplay:10.37,2013-10-01 07:19:00,
2013-10-01 03:24:00,59.5,57.5,29.85,SW,225,1.1,1.1,93,0.00,OVC,,0.00,WeatherDisplay:10.37,2013-10-01 07:24:00,
2013-10-01 03:29:00,59.5,57.5,29.85,SW,225,2.3,2.3,93,0.00,OVC,,0.00,WeatherDisplay:10.37,2013-10-01 07:29:00,
2013-10-01 03:34:00,59.5,57.5,29.85,SW,225,2.3,2.3,93,0.00,OVC,,0.00,WeatherDisplay:10.37,2013-10-01 07:34:00,
2013-10-01 03:39:00,59.5,57.5,29.86,WSW,248,2.7,2.7,93,0.00,OVC,,0.00,WeatherDisplay:10.37,2013-10-01 07:39:00,
2013-10-01 03:44:00,59.5,57.5,29.86,SW,225,2.3,2.3,93,0.00,OVC,,0.00,WeatherDisplay:10.37,2013-10-01 07:44:00,
2013-10-01 03:49:00,59.5,57.5,29.86,SW,225,2.3,2.3,93,0.00,OVC,,0.00,WeatherDisplay:10.37,2013-10-01 07:49:00,
2013-10-01 03:54:00,59.5,57.5,29.86,WSW,248,1.7,1.7,93,0.00,OVC,,0.00,WeatherDisplay:10.37,2013-10-01 07:54:00,
2013-10-01 04:00:00,59.7,57.7,29.86,SW,230,1.0,2.0,93,0.00,OVC,,0.00,WeatherDisplay:10.37,2013-10-01 08:00:00,
2013-10-01 04:05:00,59.7,57.7,29.86,SW,225,0.0,2.0,93,0.00,OVC,,0.00,WeatherDisplay:10.37,2013-10-01 08:05:00,
2013-10-01 04:10:00,59.5,57.5,29.86,SW,223,0.0,2.0,93,0.00,OVC,,0.00,WeatherDisplay:10.37,2013-10-01 08:10:00,
2013-10-01 04:15:00,59.4,57.7,29.86,SW,225,1.7,1.7,94,0.00,OVC,,0.00,WeatherDisplay:10.37,2013-10-01 08:15:00,
2013-10-01 04:20:00,59.4,57.7,29.86,WSW,248,0.0,0.0,94,0.00,OVC,,0.00,WeatherDisplay:10.37,2013-10-01 08:20:00,
2013-10-01 04:25:00,59.2,57.5,29.86,SSW,202,1.7,1.7,94,0.00,OVC,,0.00,WeatherDisplay:10.37,2013-10-01 08:25:00,
2013-10-01 04:30:00,59.0,57.3,29.86,SSW,202,0.0,0.0,94,0.00,OVC,,0.00,WeatherDisplay:10.37,2013-10-01 08:30:00,
2013-10-01 04:35:00,59.0,57.3,29.87,SW,225,1.7,1.7,94,0.00,OVC,,0.00,WeatherDisplay:10.37,2013-10-01 08:35:00,
2013-10-01 04:40:00,59.0,57.3,29.87,SW,225,2.3,2.3,94,0.00,OVC,,0.00,WeatherDisplay:10.37,2013-10-01 08:40:00,
2013-10-01 04:45:00,58.8,57.1,29.87,SSW,202,0.0,0.0,94,0.00,OVC,,0.00,WeatherDisplay:10.37,2013-10-01 08:45:00,
2013-10-01 04:50:00,58.6,57.2,29.86,SW,225,2.7,2.7,95,0.00,OVC,,0.00,WeatherDisplay:10.37,2013-10-01 08:50:00,
2013-10-01 04:55:00,58.8,57.4,29.86,SSW,202,2.3,2.3,95,0.00,OVC,,0.00,WeatherDisplay:10.37,2013-10-01 08:55:00,
2013-10-01 05:00:00,58.8,57.4,29.86,SSW,202,2.2,2.2,95,0.00,OVC,,0.00,WeatherDisplay:10.37,2013-10-01 09:00:00,
2013-10-01 05:06:00,58.8,57.4,29.86,SW,225,2.2,2.2,95,0.00,OVC,,0.00,WeatherDisplay:10.37,2013-10-01 09:06:00,
2013-10-01 05:11:00,58.8,57.4,29.87,South,180,1.1,1.4,95,0.00,OVC,,0.00,WeatherDisplay:10.37,2013-10-01 09:11:00,
2013-10-01 05:16:00,58.8,57.4,29.87,SW,225,2.3,2.3,95,0.00,OVC,,0.00,WeatherDisplay:10.37,2013-10-01 09:16:00,
2013-10-01 05:21:00,58.8,57.4,29.87,SW,225,2.3,2.3,95,0.00,OVC,,0.00,WeatherDisplay:10.37,2013-10-01 09:21:00,
2013-10-01 05:26:00,58.8,57.4,29.87,WSW,248,2.3,2.3,95,0.00,OVC,,0.00,WeatherDisplay:10.37,2013-10-01 09:26:00,
2013-10-01 05:31:00,59.0,57.6,29.87,SSW,202,2.3,2.3,95,0.00,OVC,,0.00,WeatherDisplay:10.37,2013-10-01 09:31:00,
2013-10-01 05:36:00,59.0,57.6,29.87,West,270,2.3,2.3,95,0.00,OVC,,0.00,WeatherDisplay:10.37,2013-10-01 09:36:00,
2013-10-01 05:41:00,59.0,57.6,29.87,WSW,248,0.0,0.0,95,0.00,OVC,,0.00,WeatherDisplay:10.37,2013-10-01 09:41:00,
2013-10-01 05:46:00,58.8,57.4,29.88,SW,225,1.7,1.7,95,0.00,OVC,,0.00,WeatherDisplay:10.37,2013-10-01 09:46:00,
2013-10-01 05:51:00,58.8,57.4,29.88,SSW,202,1.1,0.0,95,0.00,OVC,,0.00,WeatherDisplay:10.37,2013-10-01 09:51:00,
2013-10-01 05:56:00,58.8,57.4,29.88,West,270,0.0,0.0,95,0.00,OVC,,0.00,WeatherDisplay:10.37,2013-10-01 09:56:00,
2013-10-01 06:01:00,58.8,57.4,29.88,WSW,248,0.0,0.0,95,0.00,OVC,,0.00,WeatherDisplay:10.37,2013-10-01 10:01:00,
2013-10-01 06:06:00,58.8,57.4,29.88,SW,225,0.0,0.0,95,0.00,OVC,,0.00,WeatherDisplay:10.37,2013-10-01 10:06:00,
2013-10-01 06:11:00,58.8,57.4,29.88,South,180,0.0,0.0,95,0.00,OVC,,0.00,WeatherDisplay:10.37,2013-10-01 10:11:00,
2013-10-01 06:17:00,58.8,57.4,29.88,South,180,0.0,0.0,95,0.00,OVC,,0.00,WeatherDisplay:10.37,2013-10-01 10:17:00,
2013-10-01 06:22:00,58.8,57.4,29.88,WSW,248,1.1,1.1,95,0.00,OVC,,0.00,WeatherDisplay:10.37,2013-10-01 10:22:00,
2013-10-01 06:27:00,58.8,57.4,29.88,SW,225,0.0,0.0,95,0.00,OVC,,0.00,WeatherDisplay:10.37,2013-10-01 10:27:00,
2013-10-01 06:32:00,58.8,57.4,29.88,South,180,0.0,0.0,95,0.00,OVC,,0.00,WeatherDisplay:10.37,2013-10-01 10:32:00,
2013-10-01 06:37:00,58.8,57.4,29.89,West,270,0.0,0.0,95,0.00,OVC,,0.00,WeatherDisplay:10.37,2013-10-01 10:37:00,
2013-10-01 06:42:00,58.8,57.4,29.89,SSW,202,0.0,0.0,95,0.00,OVC,,0.00,WeatherDisplay:10.37,2013-10-01 10:42:00,
2013-10-01 06:47:00,59.0,57.6,29.89,ESE,112,0.0,0.0,95,0.00,OVC,,0.00,WeatherDisplay:10.37,2013-10-01 10:47:00,
2013-10-01 06:52:00,59.0,57.6,29.89,West,270,0.0,0.0,95,0.00,OVC,,0.00,WeatherDisplay:10.37,2013-10-01 10:52:00,
2013-10-01 06:57:00,59.0,57.6,29.89,SSW,202,1.1,1.1,95,0.00,OVC,,0.00,WeatherDisplay:10.37,2013-10-01 10:57:00,
2013-10-01 07:02:00,59.0,57.6,29.90,SW,225,0.0,0.0,95,0.00,OVC,,0.00,WeatherDisplay:10.37,2013-10-01 11:02:00,
2013-10-01 07:07:00,59.0,57.6,29.90,SW,225,2.3,0.0,95,0.00,OVC,,0.00,WeatherDisplay:10.37,2013-10-01 11:07:00,
2013-10-01 07:12:00,59.0,57.6,29.89,WSW,248,0.0,0.0,95,0.00,OVC,,0.00,WeatherDisplay:10.37,2013-10-01 11:12:00,
2013-10-01 07:17:00,58.8,57.4,29.89,SW,225,0.0,0.0,95,0.00,OVC,,0.00,WeatherDisplay:10.37,2013-10-01 11:17:00,
2013-10-01 07:22:00,58.8,57.4,29.89,SSE,158,1.1,1.1,95,0.00,OVC,,0.00,WeatherDisplay:10.37,2013-10-01 11:22:00,
2013-10-01 07:27:00,58.8,57.4,29.90,South,180,0.0,0.0,95,0.00,OVC,,0.00,WeatherDisplay:10.37,2013-10-01 11:27:00,
2013-10-01 07:32:00,58.8,57.4,29.90,WSW,248,1.1,1.1,95,0.00,OVC,,0.00,WeatherDisplay:10.37,2013-10-01 11:32:00,
2013-10-01 07:37:00,58.8,57.4,29.90,WSW,248,2.3,2.3,95,0.00,OVC,,0.00,WeatherDisplay:10.37,2013-10-01 11:37:00,
2013-10-01 07:42:00,58.8,57.4,29.90,SW,225,1.7,1.7,95,0.00,OVC,,0.00,WeatherDisplay:10.37,2013-10-01 11:42:00,
2013-10-01 07:48:00,58.8,57.4,29.90,SSW,202,0.0,0.0,95,0.00,OVC,,0.00,WeatherDisplay:10.37,2013-10-01 11:48:00,
2013-10-01 07:53:00,58.8,57.4,29.90,WSW,248,0.0,0.0,95,0.00,OVC,,0.00,WeatherDisplay:10.37,2013-10-01 11:53:00,
2013-10-01 07:58:00,59.0,57.3,29.90,SW,225,3.5,3.5,94,0.00,OVC,,0.00,WeatherDisplay:10.37,2013-10-01 11:58:00,
2013-10-01 08:03:00,59.0,57.3,29.91,WSW,248,1.7,1.7,94,0.00,OVC,,0.00,WeatherDisplay:10.37,2013-10-01 12:03:00,
2013-10-01 08:08:00,59.0,57.3,29.91,West,270,2.3,2.3,94,0.00,OVC,,0.00,WeatherDisplay:10.37,2013-10-01 12:08:00,
2013-10-01 08:13:00,59.2,57.2,29.90,West,270,2.7,2.7,93,0.00,OVC,,0.00,WeatherDisplay:10.37,2013-10-01 12:13:00,
2013-10-01 08:18:00,59.2,57.2,29.90,SW,225,3.5,3.7,93,0.00,OVC,,0.00,WeatherDisplay:10.37,2013-10-01 12:18:00,
2013-10-01 08:23:00,59.4,57.1,29.90,West,270,4.6,4.6,92,0.00,OVC,,0.00,WeatherDisplay:10.37,2013-10-01 12:23:00,
2013-10-01 08:29:00,59.7,57.4,29.90,WSW,248,4.2,4.2,92,0.00,OVC,,0.00,WeatherDisplay:10.37,2013-10-01 12:29:00,
2013-10-01 08:34:00,60.3,57.7,29.90,West,270,4.6,4.6,91,0.00,SCT,,0.00,WeatherDisplay:10.37,2013-10-01 12:34:00,
2013-10-01 08:39:00,61.2,57.9,29.91,WSW,248,4.6,4.6,89,0.00,SCT,,0.00,WeatherDisplay:10.37,2013-10-01 12:39:00,
2013-10-01 08:44:00,61.5,57.6,29.91,SW,225,4.2,4.2,87,0.00,SCT,,0.00,WeatherDisplay:10.37,2013-10-01 12:44:00,
2013-10-01 08:49:00,62.2,58.0,29.91,WNW,292,4.6,4.6,86,0.00,SCT,,0.00,WeatherDisplay:10.37,2013-10-01 12:49:00,
2013-10-01 08:54:00,63.1,58.5,29.91,SW,225,4.2,4.2,85,0.00,SCT,,0.00,WeatherDisplay:10.37,2013-10-01 12:54:00,
2013-10-01 09:00:00,63.6,58.7,29.91,SW,235,2.0,5.0,84,0.00,SCT,,0.00,WeatherDisplay:10.37,2013-10-01 13:00:00,
2013-10-01 09:05:00,64.1,58.8,29.91,SW,233,3.0,4.0,83,0.00,SCT,,0.00,WeatherDisplay:10.37,2013-10-01 13:05:00,
2013-10-01 09:10:00,64.2,58.6,29.91,SW,223,2.0,6.0,82,0.00,SCT,,0.00,WeatherDisplay:10.37,2013-10-01 13:10:00,
2013-10-01 09:15:00,64.7,59.0,29.91,SW,215,2.0,5.0,82,0.00,SCT,,0.00,WeatherDisplay:10.37,2013-10-01 13:15:00,
2013-10-01 09:20:00,62.9,58.6,29.91,SW,216,3.0,5.0,86,0.00,SCT,,0.00,WeatherDisplay:10.37,2013-10-01 13:20:00,
2013-10-01 09:25:00,62.6,58.1,29.91,SW,231,5.0,6.0,85,0.00,SCT,,0.00,WeatherDisplay:10.37,2013-10-01 13:25:00,
2013-10-01 09:30:00,63.1,58.5,29.91,WSW,240,3.0,5.0,85,0.00,SCT,,0.00,WeatherDisplay:10.37,2013-10-01 13:30:00,
2013-10-01 09:35:00,63.5,58.9,29.91,SSW,202,4.6,4.6,85,0.00,CLR,,0.00,WeatherDisplay:10.37,2013-10-01 13:35:00,
2013-10-01 09:40:00,63.7,58.8,29.91,WSW,248,4.7,4.7,84,0.00,CLR,,0.00,WeatherDisplay:10.37,2013-10-01 13:40:00,
2013-10-01 09:45:00,64.2,58.9,29.91,SW,225,4.6,4.6,83,0.00,CLR,,0.00,WeatherDisplay:10.37,2013-10-01 13:45:00,
2013-10-01 09:50:00,64.8,59.5,29.91,West,270,4.6,4.6,83,0.00,CLR,,0.00,WeatherDisplay:10.37,2013-10-01 13:50:00,
2013-10-01 09:55:00,65.1,59.5,29.91,West,270,5.8,5.8,82,0.00,CLR,,0.00,WeatherDisplay:10.37,2013-10-01 13:55:00,
2013-10-01 10:00:00,65.5,59.9,29.91,SW,225,6.9,6.9,82,0.00,CLR,,0.00,WeatherDisplay:10.37,2013-10-01 14:00:00,
2013-10-01 10:06:00,65.5,59.9,29.91,WSW,248,6.9,6.9,82,0.00,FEW,,0.00,WeatherDisplay:10.37,2013-10-01 14:06:00,
2013-10-01 10:11:00,65.8,60.2,29.91,WSW,248,5.8,5.8,82,0.00,FEW,,0.00,WeatherDisplay:10.37,2013-10-01 14:11:00,
2013-10-01 10:16:00,66.2,60.2,29.91,WSW,248,5.8,5.8,81,0.00,FEW,,0.00,WeatherDisplay:10.37,2013-10-01 14:16:00,
2013-10-01 10:21:00,67.5,60.8,29.91,SW,225,4.6,4.6,79,0.00,FEW,,0.00,WeatherDisplay:10.37,2013-10-01 14:21:00,
2013-10-01 10:27:00,66.7,60.3,29.92,SW,225,7.3,7.3,80,0.00,FEW,,0.00,WeatherDisplay:10.37,2013-10-01 14:27:00,
2013-10-01 10:32:00,66.9,60.5,29.92,SW,225,5.8,5.8,80,0.00,FEW,,0.00,WeatherDisplay:10.37,2013-10-01 14:32:00,
2013-10-01 10:37:00,67.1,60.4,29.92,SW,225,6.9,6.9,79,0.00,FEW,,0.00,WeatherDisplay:10.37,2013-10-01 14:37:00,
2013-10-01 10:43:00,66.9,60.5,29.92,WSW,248,6.9,6.9,80,0.00,FEW,,0.00,WeatherDisplay:10.37,2013-10-01 14:43:00,
2013-10-01 10:48:00,67.6,61.2,29.92,SSW,202,5.8,5.8,80,0.00,FEW,,0.00,WeatherDisplay:10.37,2013-10-01 14:48:00,
2013-10-01 10:54:00,68.4,61.3,29.92,SW,225,4.6,4.6,78,0.00,FEW,,0.00,WeatherDisplay:10.37,2013-10-01 14:54:00,
2013-10-01 10:59:00,68.0,60.9,29.91,WSW,248,10.4,10.4,78,0.00,FEW,,0.00,WeatherDisplay:10.37,2013-10-01 14:59:00,
2013-10-01 11:04:00,68.5,61.4,29.91,SW,225,6.9,6.9,78,0.00,FEW,,0.00,WeatherDisplay:10.37,2013-10-01 15:04:00,
2013-10-01 11:09:00,69.1,61.9,29.91,WSW,248,5.8,5.8,78,0.00,FEW,,0.00,WeatherDisplay:10.37,2013-10-01 15:09:00,
2013-10-01 11:14:00,69.1,61.6,29.91,WSW,248,5.8,5.8,77,0.00,FEW,,0.00,WeatherDisplay:10.37,2013-10-01 15:14:00,
2013-10-01 11:19:00,69.6,62.1,29.91,SW,225,7.8,7.8,77,0.00,FEW,,0.00,WeatherDisplay:10.37,2013-10-01 15:19:00,
2013-10-01 11:24:00,70.2,62.3,29.91,WSW,248,5.8,5.8,76,0.00,FEW,,0.00,WeatherDisplay:10.37,2013-10-01 15:24:00,
2013-10-01 11:29:00,70.2,62.6,29.91,WSW,248,6.8,6.8,77,0.00,FEW,,0.00,WeatherDisplay:10.37,2013-10-01 15:29:00,
2013-10-01 11:34:00,71.2,62.9,29.91,SW,225,6.9,6.9,75,0.00,SCT,,0.00,WeatherDisplay:10.37,2013-10-01 15:34:00,
2013-10-01 11:39:00,71.2,62.9,29.90,West,270,8.1,8.1,75,0.00,SCT,,0.00,WeatherDisplay:10.37,2013-10-01 15:39:00,
2013-10-01 11:44:00,72.1,63.4,29.90,SSW,202,8.1,8.1,74,0.00,SCT,,0.00,WeatherDisplay:10.37,2013-10-01 15:44:00,
2013-10-01 11:49:00,70.9,63.0,29.90,SW,225,8.1,8.1,76,0.00,SCT,,0.00,WeatherDisplay:10.37,2013-10-01 15:49:00,
2013-10-01 11:54:00,71.8,63.1,29.90,WSW,248,5.8,5.8,74,0.00,SCT,,0.00,WeatherDisplay:10.37,2013-10-01 15:54:00,
2013-10-01 12:00:00,71.2,62.9,29.90,WSW,250,8.0,8.0,75,0.00,SCT,,0.00,WeatherDisplay:10.37,2013-10-01 16:00:00,
2013-10-01 12:05:00,71.4,62.7,29.90,SW,236,6.0,6.0,74,0.00,SCT,,0.00,WeatherDisplay:10.37,2013-10-01 16:05:00,
2013-10-01 12:10:00,73.6,64.4,29.90,SW,229,5.0,6.0,73,0.00,SCT,,0.00,WeatherDisplay:10.37,2013-10-01 16:10:00,
2013-10-01 12:15:00,73.4,63.8,29.90,SW,232,5.0,7.0,72,0.00,SCT,,0.00,WeatherDisplay:10.37,2013-10-01 16:15:00,
2013-10-01 12:20:00,73.4,63.4,29.90,SW,225,6.9,6.9,71,0.00,SCT,,0.00,WeatherDisplay:10.37,2013-10-01 16:20:00,
2013-10-01 12:25:00,71.4,62.3,29.89,SSW,202,8.1,8.1,73,0.00,SCT,,0.00,WeatherDisplay:10.37,2013-10-01 16:25:00,
2013-10-01 12:30:00,72.1,62.6,29.89,WSW,248,12.7,12.7,72,0.00,SCT,,0.00,WeatherDisplay:10.37,2013-10-01 16:30:00,
2013-10-01 12:32:00,73.0,63.0,29.89,SW,225,9.2,9.2,71,0.00,BKN,,0.00,WeatherDisplay:10.37,2013-10-01 16:32:00,
2013-10-01 12:37:00,73.6,63.2,29.89,WSW,248,12.7,12.7,70,0.00,BKN,,0.00,WeatherDisplay:10.37,2013-10-01 16:37:00,
2013-10-01 12:43:00,73.0,62.6,29.89,SW,225,8.3,8.3,70,0.00,BKN,,0.00,WeatherDisplay:10.37,2013-10-01 16:43:00,
2013-10-01 12:48:00,72.5,62.2,29.89,WSW,248,10.4,10.4,70,0.00,BKN,,0.00,WeatherDisplay:10.37,2013-10-01 16:48:00,
2013-10-01 12:53:00,72.1,62.2,29.89,West,270,10.9,10.9,71,0.00,BKN,,0.00,WeatherDisplay:10.37,2013-10-01 16:53:00,
2013-10-01 12:58:00,72.7,62.3,29.89,West,270,10.4,10.4,70,0.00,BKN,,0.00,WeatherDisplay:10.37,2013-10-01 16:58:00,
2013-10-01 13:03:00,73.4,62.2,29.89,WSW,248,13.0,13.0,68,0.00,BKN,,0.00,WeatherDisplay:10.37,2013-10-01 17:03:00,
2013-10-01 13:08:00,72.7,61.9,29.89,SW,225,8.1,8.1,69,0.00,BKN,,0.00,WeatherDisplay:10.37,2013-10-01 17:08:00,
2013-10-01 13:13:00,71.8,61.5,29.89,SW,225,12.7,12.7,70,0.00,BKN,,0.00,WeatherDisplay:10.37,2013-10-01 17:13:00,
2013-10-01 13:18:00,71.4,61.5,29.89,WSW,248,12.7,12.7,71,0.00,BKN,,0.00,WeatherDisplay:10.37,2013-10-01 17:18:00,
2013-10-01 13:23:00,71.6,62.1,29.88,WSW,248,10.9,10.9,72,0.00,BKN,,0.00,WeatherDisplay:10.37,2013-10-01 17:23:00,
2013-10-01 13:28:00,71.8,61.9,29.88,West,270,9.9,9.9,71,0.00,BKN,,0.00,WeatherDisplay:10.37,2013-10-01 17:28:00,
2013-10-01 13:33:00,73.0,62.6,29.88,SW,225,9.2,9.2,70,0.00,BKN,,0.00,WeatherDisplay:10.37,2013-10-01 17:33:00,
2013-10-01 13:38:00,74.1,63.3,29.89,SW,225,8.1,8.1,69,0.00,BKN,,0.00,WeatherDisplay:10.37,2013-10-01 17:38:00,
2013-10-01 13:43:00,74.1,61.6,29.89,West,270,8.1,8.1,65,0.00,BKN,,0.00,WeatherDisplay:10.37,2013-10-01 17:43:00,
2013-10-01 13:48:00,75.4,62.8,29.88,West,270,7.3,7.3,65,0.00,BKN,,0.00,WeatherDisplay:10.37,2013-10-01 17:48:00,
2013-10-01 13:53:00,76.5,63.4,29.88,SW,225,6.9,6.9,64,0.00,BKN,,0.00,WeatherDisplay:10.37,2013-10-01 17:53:00,
2013-10-01 13:58:00,75.7,62.2,29.88,WSW,248,10.4,10.4,63,0.00,BKN,,0.00,WeatherDisplay:10.37,2013-10-01 17:58:00,
2013-10-01 14:03:00,78.4,63.4,29.87,SSW,202,8.3,8.3,60,0.00,BKN,,0.00,WeatherDisplay:10.37,2013-10-01 18:03:00,
2013-10-01 14:09:00,76.5,62.0,29.87,SW,225,9.2,9.2,61,0.00,BKN,,0.00,WeatherDisplay:10.37,2013-10-01 18:09:00,
2013-10-01 14:14:00,75.4,61.9,29.87,WSW,248,11.5,11.5,63,0.00,BKN,,0.00,WeatherDisplay:10.37,2013-10-01 18:14:00,
2013-10-01 14:19:00,74.1,61.6,29.87,WSW,248,11.4,11.4,65,0.00,BKN,,0.00,WeatherDisplay:10.37,2013-10-01 18:19:00,
2013-10-01 14:24:00,73.2,60.7,29.87,SW,225,12.7,12.7,65,0.00,BKN,,0.00,WeatherDisplay:10.37,2013-10-01 18:24:00,
2013-10-01 14:29:00,73.4,61.3,29.87,WSW,248,10.4,10.4,66,0.00,BKN,,0.00,WeatherDisplay:10.37,2013-10-01 18:29:00,
2013-10-01 14:34:00,74.8,61.8,29.87,SW,225,9.2,9.2,64,0.00,FEW,,0.00,WeatherDisplay:10.37,2013-10-01 18:34:00,
2013-10-01 14:39:00,75.6,61.7,29.86,West,270,11.5,11.5,62,0.00,FEW,,0.00,WeatherDisplay:10.37,2013-10-01 18:39:00,
2013-10-01 14:45:00,75.2,61.3,29.86,WSW,250,9.0,12.0,62,0.00,FEW,,0.00,WeatherDisplay:10.37,2013-10-01 18:45:00,
2013-10-01 14:50:00,77.5,62.5,29.86,WSW,245,6.0,12.0,60,0.00,FEW,,0.00,WeatherDisplay:10.37,2013-10-01 18:50:00,
2013-10-01 14:55:00,77.0,61.6,29.86,SW,225,10.4,10.4,59,0.00,FEW,,0.00,WeatherDisplay:10.37,2013-10-01 18:55:00,
2013-10-01 15:00:00,77.9,61.9,29.86,WSW,248,11.4,11.4,58,0.00,FEW,,0.00,WeatherDisplay:10.37,2013-10-01 19:00:00,
2013-10-01 15:05:00,77.4,61.9,29.86,WSW,248,11.9,11.9,59,0.00,FEW,,0.00,WeatherDisplay:10.37,2013-10-01 19:05:00,
2013-10-01 15:10:00,77.7,61.3,29.85,WSW,248,9.2,9.2,57,0.00,FEW,,0.00,WeatherDisplay:10.37,2013-10-01 19:10:00,
2013-10-01 15:15:00,77.9,61.4,29.85,West,270,9.2,9.2,57,0.00,FEW,,0.00,WeatherDisplay:10.37,2013-10-01 19:15:00,
2013-10-01 15:20:00,77.9,61.4,29.85,SSE,158,8.1,8.1,57,0.00,FEW,,0.00,WeatherDisplay:10.37,2013-10-01 19:20:00,
2013-10-01 15:25:00,77.4,61.5,29.84,SW,225,9.2,9.2,58,0.00,FEW,,0.00,WeatherDisplay:10.37,2013-10-01 19:25:00,
2013-10-01 15:31:00,76.6,60.7,29.84,West,270,16.1,16.1,58,0.00,FEW,,0.00,WeatherDisplay:10.37,2013-10-01 19:31:00,
2013-10-01 15:36:00,77.0,61.1,29.85,West,270,8.1,8.1,58,0.00,FEW,,0.00,WeatherDisplay:10.37,2013-10-01 19:36:00,
2013-10-01 15:41:00,78.4,61.9,29.85,SW,225,10.4,10.4,57,0.00,FEW,,0.00,WeatherDisplay:10.37,2013-10-01 19:41:00,
2013-10-01 15:46:00,77.0,61.1,29.85,WSW,248,10.4,10.4,58,0.00,FEW,,0.00,WeatherDisplay:10.37,2013-10-01 19:46:00,
2013-10-01 15:51:00,77.0,61.1,29.85,West,270,10.4,10.4,58,0.00,FEW,,0.00,WeatherDisplay:10.37,2013-10-01 19:51:00,
2013-10-01 15:56:00,78.8,62.3,29.85,SSW,202,10.4,10.4,57,0.00,FEW,,0.00,WeatherDisplay:10.37,2013-10-01 19:56:00,
2013-10-01 16:01:00,78.1,61.6,29.84,West,270,13.0,13.0,57,0.00,FEW,,0.00,WeatherDisplay:10.37,2013-10-01 20:01:00,
2013-10-01 16:07:00,76.5,61.6,29.84,SW,225,10.4,10.4,60,0.00,FEW,,0.00,WeatherDisplay:10.37,2013-10-01 20:07:00,
2013-10-01 16:12:00,75.9,61.9,29.84,West,270,6.9,6.9,62,0.00,FEW,,0.00,WeatherDisplay:10.37,2013-10-01 20:12:00,
2013-10-01 16:17:00,75.9,61.0,29.84,West,270,9.2,9.2,60,0.00,FEW,,0.00,WeatherDisplay:10.37,2013-10-01 20:17:00,
2013-10-01 16:22:00,77.4,61.9,29.84,West,270,6.3,6.3,59,0.00,FEW,,0.00,WeatherDisplay:10.37,2013-10-01 20:22:00,
2013-10-01 16:27:00,76.6,61.7,29.84,WSW,248,6.9,6.9,60,0.00,FEW,,0.00,WeatherDisplay:10.37,2013-10-01 20:27:00,
2013-10-01 16:32:00,77.5,62.0,29.84,SW,225,10.4,10.4,59,0.00,SCT,,0.00,WeatherDisplay:10.37,2013-10-01 20:32:00,
2013-10-01 16:37:00,77.2,61.8,29.83,SW,225,7.3,7.3,59,0.00,SCT,,0.00,WeatherDisplay:10.37,2013-10-01 20:37:00,
2013-10-01 16:43:00,76.5,61.6,29.83,West,270,6.9,6.9,60,0.00,SCT,,0.00,WeatherDisplay:10.37,2013-10-01 20:43:00,
2013-10-01 16:48:00,77.0,60.6,29.83,WSW,248,10.4,10.4,57,0.00,SCT,,0.00,WeatherDisplay:10.37,2013-10-01 20:48:00,
2013-10-01 16:53:00,77.2,61.3,29.83,WSW,248,6.9,6.9,58,0.00,SCT,,0.00,WeatherDisplay:10.37,2013-10-01 20:53:00,
2013-10-01 16:58:00,77.2,60.8,29.83,WSW,248,10.4,10.4,57,0.00,SCT,,0.00,WeatherDisplay:10.37,2013-10-01 20:58:00,
2013-10-01 17:03:00,76.8,60.4,29.83,SW,225,10.4,10.4,57,0.00,FEW,,0.00,WeatherDisplay:10.37,2013-10-01 21:03:00,
2013-10-01 17:08:00,75.9,61.0,29.83,WSW,248,9.2,9.2,60,0.00,FEW,,0.00,WeatherDisplay:10.37,2013-10-01 21:08:00,
2013-10-01 17:13:00,75.9,61.0,29.84,WSW,248,6.3,6.3,60,0.00,FEW,,0.00,WeatherDisplay:10.37,2013-10-01 21:13:00,
2013-10-01 17:19:00,75.9,61.0,29.84,WSW,248,6.3,6.3,60,0.00,FEW,,0.00,WeatherDisplay:10.37,2013-10-01 21:19:00,
2013-10-01 17:24:00,75.9,61.0,29.84,WSW,248,6.3,6.3,60,0.00,FEW,,0.00,WeatherDisplay:10.37,2013-10-01 21:24:00,
2013-10-01 17:29:00,75.9,61.0,29.84,WSW,248,6.3,6.3,60,0.00,FEW,,0.00,WeatherDisplay:10.37,2013-10-01 21:29:00,
2013-10-01 17:34:00,75.9,61.0,29.84,WSW,248,6.3,6.3,60,0.00,FEW,,0.00,WeatherDisplay:10.37,2013-10-01 21:34:00,
2013-10-01 17:39:00,75.9,61.0,29.84,WSW,248,6.3,6.3,60,0.00,FEW,,0.00,WeatherDisplay:10.37,2013-10-01 21:39:00,
2013-10-01 17:45:00,75.9,61.0,29.84,WSW,248,6.3,6.3,60,0.00,FEW,,0.00,WeatherDisplay:10.37,2013-10-01 21:45:00,
2013-10-01 17:50:00,75.9,61.0,29.84,WSW,248,6.3,6.3,60,0.00,FEW,,0.00,WeatherDisplay:10.37,2013-10-01 21:50:00,
2013-10-01 17:55:00,75.9,61.0,29.84,WSW,248,6.3,6.3,60,0.00,FEW,,0.00,WeatherDisplay:10.37,2013-10-01 21:55:00,
2013-10-01 18:07:00,76.6,61.7,29.88,SW,225,4.6,4.6,60,0.00,FEW,,0.00,WeatherDisplay:10.37,2013-10-01 22:07:00,
2013-10-01 18:13:00,76.3,62.3,29.84,WSW,248,4.6,4.6,62,0.00,FEW,,0.00,WeatherDisplay:10.37,2013-10-01 22:13:00,
2013-10-01 18:18:00,76.1,62.1,29.84,WSW,248,3.5,3.5,62,0.00,FEW,,0.00,WeatherDisplay:10.37,2013-10-01 22:18:00,
2013-10-01 18:23:00,76.1,61.7,29.84,SW,225,3.5,3.5,61,0.00,FEW,,0.00,WeatherDisplay:10.37,2013-10-01 22:23:00,
2013-10-01 18:28:00,75.0,61.5,29.84,SW,225,4.6,4.6,63,0.00,FEW,,0.00,WeatherDisplay:10.37,2013-10-01 22:28:00,
2013-10-01 18:33:00,74.7,61.3,29.84,WSW,248,4.6,4.6,63,0.00,SCT,,0.00,WeatherDisplay:10.37,2013-10-01 22:33:00,
2013-10-01 18:38:00,74.5,61.1,29.84,West,270,5.8,5.8,63,0.00,SCT,,0.00,WeatherDisplay:10.37,2013-10-01 22:38:00,
2013-10-01 18:43:00,74.3,61.3,29.84,SW,225,3.7,3.7,64,0.00,SCT,,0.00,WeatherDisplay:10.37,2013-10-01 22:43:00,
2013-10-01 18:48:00,73.8,61.3,29.84,SW,225,3.5,3.5,65,0.00,SCT,,0.00,WeatherDisplay:10.37,2013-10-01 22:48:00,
2013-10-01 18:53:00,73.2,61.2,29.84,SSW,202,4.7,4.7,66,0.00,SCT,,0.00,WeatherDisplay:10.37,2013-10-01 22:53:00,
2013-10-01 18:58:00,72.5,60.9,29.84,SW,225,4.6,4.6,67,0.00,SCT,,0.00,WeatherDisplay:10.37,2013-10-01 22:58:00,
2013-10-01 19:03:00,72.0,60.9,29.84,SW,225,3.5,3.5,68,0.00,CLR,,0.00,WeatherDisplay:10.37,2013-10-01 23:03:00,
2013-10-01 19:08:00,71.6,60.9,29.84,SW,225,4.2,4.2,69,0.00,CLR,,0.00,WeatherDisplay:10.37,2013-10-01 23:08:00,
2013-10-01 19:14:00,71.1,61.2,29.84,SW,225,3.7,3.7,71,0.00,CLR,,0.00,WeatherDisplay:10.37,2013-10-01 23:14:00,
2013-10-01 19:19:00,70.5,61.0,29.84,SW,225,4.2,4.2,72,0.00,CLR,,0.00,WeatherDisplay:10.37,2013-10-01 23:19:00,
2013-10-01 19:20:00,70.5,61.0,29.84,SSW,202,4.6,4.6,72,0.00,CLR,,0.00,WeatherDisplay:10.37,2013-10-01 23:20:00,
2013-10-01 19:25:00,70.3,60.8,29.84,SW,225,4.2,4.2,72,0.00,CLR,,0.00,WeatherDisplay:10.37,2013-10-01 23:25:00,
2013-10-01 19:30:00,70.2,61.1,29.84,SW,225,4.6,4.6,73,0.00,CLR,,0.00,WeatherDisplay:10.37,2013-10-01 23:30:00,
2013-10-01 19:31:00,69.8,60.8,29.84,SSW,202,4.6,4.6,73,0.00,CLR,,0.00,WeatherDisplay:10.37,2013-10-01 23:31:00,
2013-10-01 19:36:00,69.6,60.9,29.84,SW,225,4.2,4.2,74,0.00,CLR,,0.00,WeatherDisplay:10.37,2013-10-01 23:36:00,
2013-10-01 19:41:00,69.3,60.7,29.84,West,270,4.2,4.2,74,0.00,CLR,,0.00,WeatherDisplay:10.37,2013-10-01 23:41:00,
2013-10-01 19:46:00,69.1,60.8,29.84,SW,225,3.5,3.5,75,0.00,CLR,,0.00,WeatherDisplay:10.37,2013-10-01 23:46:00,
2013-10-01 19:51:00,68.7,60.8,29.84,SW,225,3.5,3.5,76,0.00,CLR,,0.00,WeatherDisplay:10.37,2013-10-01 23:51:00,
2013-10-01 19:56:00,68.5,60.6,29.84,SW,225,3.5,3.5,76,0.00,CLR,,0.00,WeatherDisplay:10.37,2013-10-01 23:56:00,
2013-10-01 20:01:00,68.4,60.5,29.85,SW,225,3.5,3.5,76,0.00,CLR,,0.00,WeatherDisplay:10.37,2013-10-02 00:01:00,
2013-10-01 20:06:00,68.0,60.5,29.85,WSW,248,3.2,3.2,77,0.00,CLR,,0.00,WeatherDisplay:10.37,2013-10-02 00:06:00,
2013-10-01 20:11:00,67.8,60.3,29.85,WSW,248,2.3,2.4,77,0.00,CLR,,0.00,WeatherDisplay:10.37,2013-10-02 00:11:00,
2013-10-01 20:16:00,67.6,60.5,29.85,SSW,202,3.5,3.5,78,0.00,CLR,,0.00,WeatherDisplay:10.37,2013-10-02 00:16:00,
2013-10-01 20:19:00,67.6,60.5,29.85,SW,225,2.7,2.7,78,0.00,CLR,,0.00,WeatherDisplay:10.37,2013-10-02 00:19:00,
2013-10-01 20:24:00,67.6,60.5,29.85,SW,225,3.5,3.5,78,0.00,CLR,,0.00,WeatherDisplay:10.37,2013-10-02 00:24:00,
2013-10-01 20:29:00,67.3,60.2,29.85,SW,225,3.5,3.5,78,0.00,CLR,,0.00,WeatherDisplay:10.37,2013-10-02 00:29:00,
2013-10-01 20:34:00,67.1,60.4,29.85,SW,225,3.5,3.5,79,0.00,CLR,,0.00,WeatherDisplay:10.37,2013-10-02 00:34:00,
2013-10-01 20:39:00,66.7,60.0,29.86,SW,225,2.3,2.3,79,0.00,CLR,,0.00,WeatherDisplay:10.37,2013-10-02 00:39:00,
2013-10-01 20:44:00,66.6,60.2,29.86,SW,225,2.3,2.3,80,0.00,CLR,,0.00,WeatherDisplay:10.37,2013-10-02 00:44:00,
2013-10-01 20:49:00,66.4,60.0,29.86,WSW,248,2.7,2.7,80,0.00,CLR,,0.00,WeatherDisplay:10.37,2013-10-02 00:49:00,
2013-10-01 20:54:00,66.4,60.4,29.86,SSW,202,3.5,3.5,81,0.00,CLR,,0.00,WeatherDisplay:10.37,2013-10-02 00:54:00,
2013-10-01 20:59:00,66.0,60.0,29.86,WSW,248,3.5,3.5,81,0.00,CLR,,0.00,WeatherDisplay:10.37,2013-10-02 00:59:00,
2013-10-01 21:04:00,66.0,60.3,29.86,SSW,202,2.7,2.7,82,0.00,CLR,,0.00,WeatherDisplay:10.37,2013-10-02 01:04:00,
2013-10-01 21:09:00,65.7,60.1,29.86,WSW,248,2.7,2.7,82,0.00,CLR,,0.00,WeatherDisplay:10.37,2013-10-02 01:09:00,
2013-10-01 21:14:00,65.7,60.1,29.86,SW,225,3.2,3.2,82,0.00,CLR,,0.00,WeatherDisplay:10.37,2013-10-02 01:14:00,
2013-10-01 21:19:00,65.7,60.1,29.86,SW,225,4.6,4.6,82,0.00,CLR,,0.00,WeatherDisplay:10.37,2013-10-02 01:19:00,
2013-10-01 21:24:00,65.7,60.1,29.86,SSW,202,3.5,3.5,82,0.00,CLR,,0.00,WeatherDisplay:10.37,2013-10-02 01:24:00,
2013-10-01 21:29:00,65.3,60.0,29.86,West,270,3.5,3.5,83,0.00,CLR,,0.00,WeatherDisplay:10.37,2013-10-02 01:29:00,
2013-10-01 21:34:00,65.1,59.8,29.86,SW,225,3.5,3.5,83,0.00,CLR,,0.00,WeatherDisplay:10.37,2013-10-02 01:34:00,
2013-10-01 21:39:00,64.9,59.6,29.86,SW,225,2.7,2.7,83,0.00,CLR,,0.00,WeatherDisplay:10.37,2013-10-02 01:39:00,
2013-10-01 21:44:00,64.8,59.5,29.86,SW,225,3.5,3.5,83,0.00,CLR,,0.00,WeatherDisplay:10.37,2013-10-02 01:44:00,
2013-10-01 21:49:00,64.8,59.5,29.86,SSW,202,3.5,3.5,83,0.00,CLR,,0.00,WeatherDisplay:10.37,2013-10-02 01:49:00,
2013-10-01 21:54:00,64.6,59.3,29.86,SW,225,2.7,2.7,83,0.00,CLR,,0.00,WeatherDisplay:10.37,2013-10-02 01:54:00,
2013-10-01 21:59:00,64.6,59.7,29.86,SW,225,3.5,3.5,84,0.00,CLR,,0.00,WeatherDisplay:10.37,2013-10-02 01:59:00,
2013-10-01 22:04:00,64.4,59.5,29.86,SSW,202,3.5,3.5,84,0.00,CLR,,0.00,WeatherDisplay:10.37,2013-10-02 02:04:00,
2013-10-01 22:09:00,64.4,59.5,29.86,SW,225,2.7,2.7,84,0.00,CLR,,0.00,WeatherDisplay:10.37,2013-10-02 02:09:00,
2013-10-01 22:14:00,64.4,59.5,29.87,SW,225,3.5,3.5,84,0.00,CLR,,0.00,WeatherDisplay:10.37,2013-10-02 02:14:00,
2013-10-01 22:19:00,64.2,59.3,29.87,SW,225,3.2,3.2,84,0.00,CLR,,0.00,WeatherDisplay:10.37,2013-10-02 02:19:00,
2013-10-01 22:24:00,64.0,59.1,29.87,SW,225,2.7,2.7,84,0.00,CLR,,0.00,WeatherDisplay:10.37,2013-10-02 02:24:00,
2013-10-01 22:29:00,63.9,59.0,29.87,SW,225,3.5,3.5,84,0.00,CLR,,0.00,WeatherDisplay:10.37,2013-10-02 02:29:00,
2013-10-01 22:34:00,63.9,59.0,29.87,SW,225,3.5,3.5,84,0.00,CLR,,0.00,WeatherDisplay:10.37,2013-10-02 02:34:00,
2013-10-01 22:39:00,63.9,59.0,29.87,SW,225,3.5,3.5,84,0.00,CLR,,0.00,WeatherDisplay:10.37,2013-10-02 02:39:00,
2013-10-01 22:44:00,63.7,58.8,29.87,SW,225,2.7,2.7,84,0.00,CLR,,0.00,WeatherDisplay:10.37,2013-10-02 02:44:00,
2013-10-01 22:49:00,63.7,58.8,29.87,SSW,202,3.5,3.5,84,0.00,CLR,,0.00,WeatherDisplay:10.37,2013-10-02 02:49:00,
2013-10-01 22:54:00,63.7,58.8,29.87,SSW,202,3.2,3.2,84,0.00,CLR,,0.00,WeatherDisplay:10.37,2013-10-02 02:54:00,
2013-10-01 22:59:00,63.5,58.6,29.87,SW,225,3.7,3.7,84,0.00,CLR,,0.00,WeatherDisplay:10.37,2013-10-02 02:59:00,
2013-10-01 23:04:00,63.3,58.4,29.87,SW,225,3.5,3.5,84,0.00,CLR,,0.00,WeatherDisplay:10.37,2013-10-02 03:04:00,
2013-10-01 23:09:00,63.3,58.4,29.87,SSW,202,3.5,3.5,84,0.00,CLR,,0.00,WeatherDisplay:10.37,2013-10-02 03:09:00,
2013-10-01 23:14:00,63.3,58.4,29.87,SW,225,3.5,3.5,84,0.00,CLR,,0.00,WeatherDisplay:10.37,2013-10-02 03:14:00,
2013-10-01 23:19:00,63.3,58.4,29.87,SW,225,3.5,3.5,84,0.00,CLR,,0.00,WeatherDisplay:10.37,2013-10-02 03:19:00,
2013-10-01 23:24:00,63.1,58.5,29.87,WNW,292,3.5,3.5,85,0.00,CLR,,0.00,WeatherDisplay:10.37,2013-10-02 03:24:00,
2013-10-01 23:29:00,63.0,58.4,29.87,SSW,202,1.1,1.1,85,0.00,CLR,,0.00,WeatherDisplay:10.37,2013-10-02 03:29:00,
2013-10-01 23:34:00,62.6,58.0,29.87,SSW,202,0.0,0.0,85,0.00,CLR,,0.00,WeatherDisplay:10.37,2013-10-02 03:34:00,
2013-10-01 23:39:00,62.2,57.6,29.87,SW,225,0.0,0.0,85,0.00,CLR,,0.00,WeatherDisplay:10.37,2013-10-02 03:39:00,
2013-10-01 23:44:00,61.9,57.7,29.87,SSW,202,2.2,2.2,86,0.00,CLR,,0.00,WeatherDisplay:10.37,2013-10-02 03:44:00,
2013-10-01 23:49:00,61.9,57.7,29.87,SW,225,2.3,2.3,86,0.00,CLR,,0.00,WeatherDisplay:10.37,2013-10-02 03:49:00,
2013-10-01 23:54:00,61.7,57.5,29.87,SW,225,2.3,2.3,86,0.00,CLR,,0.00,WeatherDisplay:10.37,2013-10-02 03:54:00,
2013-10-01 23:59:00,61.7,57.5,29.87,SW,225,2.7,2.7,86,0.00,CLR,,0.00,WeatherDisplay:10.37,2013-10-02 03:59:00,